Time;durP1;ratioP1;P1;durP2;ratioP2;P2;SDS_P1;SDS_P2;PMS_P1;PMS_P2;Temp;Humidity;BMP_temperature;BMP_pressure;BME280_temperature;BME280_humidity;BME280_pressure;Samples;Min_cycle;Max_cycle;Signal;HPM_P1;HPM_P2
2022/02/13 00:00:20;;;;;;;2.45;1.70;;;;;;;-145.06;0.00;60892.56;4841681;28;20261;-88
2022/02/13 00:03:00;;;;;;;2.55;1.67;;;;;;;-145.06;0.00;60892.56;4855228;28;20033;-87
2022/02/13 00:05:39;;;;;;;2.20;1.10;;;;;;;-145.06;0.00;60892.56;4848884;28;20235;-88
2022/02/13 00:08:18;;;;;;;2.10;1.33;;;;;;;-145.06;0.00;60892.56;4838035;28;20041;-87
2022/02/13 00:10:57;;;;;;;4.03;1.30;;;;;;;-145.06;0.00;60892.56;4850823;28;20042;-88
2022/02/13 00:13:36;;;;;;;2.97;1.37;;;;;;;-145.06;0.00;60892.56;4828168;28;20453;-86
2022/02/13 00:16:16;;;;;;;2.05;1.17;;;;;;;-145.06;0.00;60892.56;4835837;28;20277;-88
2022/02/13 00:18:55;;;;;;;1.58;0.98;;;;;;;-145.06;0.00;60892.56;4826311;28;20121;-88
2022/02/13 00:21:34;;;;;;;2.03;1.33;;;;;;;-145.06;0.00;60892.56;4828265;28;20122;-87
2022/02/13 00:24:13;;;;;;;1.67;0.97;;;;;;;-145.06;0.00;60892.56;4838913;28;20022;-87
2022/02/13 00:26:52;;;;;;;1.83;1.20;;;;;;;-145.06;0.00;60892.56;4835831;28;20372;-87
2022/02/13 00:29:31;;;;;;;1.83;1.37;;;;;;;-145.06;0.00;60892.56;4832194;28;20292;-88
2022/02/13 00:32:09;;;;;;;1.40;1.10;;;;;;;5.49;0.00;60892.56;4836540;28;20038;-88
2022/02/13 00:34:49;;;;;;;1.58;0.88;;;;;;;2.89;0.00;60892.56;4836787;28;20055;-88
2022/02/13 00:37:28;;;;;;;1.45;1.02;;;;;;;-145.06;0.00;60892.56;4833892;28;20038;-87
2022/02/13 00:40:09;;;;;;;2.10;1.00;;;;;;;-145.06;0.00;60892.56;4844759;28;20025;-88
2022/02/13 00:42:48;;;;;;;;;;;;;;;-145.06;0.00;60892.56;4845071;28;20276;-86
2022/02/13 00:45:27;;;;;;;1.48;1.00;;;;;;;-145.06;0.00;60892.56;4818977;28;19914;-89
2022/02/13 00:48:10;;;;;;;1.23;1.05;;;;;;;-145.06;0.00;60892.56;4829550;28;20121;-88
2022/02/13 00:50:49;;;;;;;1.38;1.00;;;;;;;-145.06;0.00;60892.56;4863667;28;20145;-88
2022/02/13 00:53:28;;;;;;;3.20;0.90;;;;;;;-145.06;0.00;60892.56;4841607;28;20033;-88
2022/02/13 00:56:07;;;;;;;1.13;1.00;;;;;;;-145.06;0.00;60892.56;4844187;28;20112;-87
2022/02/13 00:58:46;;;;;;;1.25;1.10;;;;;;;2.28;0.00;60892.56;4826653;28;20296;-88
2022/02/13 01:01:24;;;;;;;1.30;1.10;;;;;;;-145.06;0.00;60892.56;4842913;28;20494;-88
2022/02/13 01:04:04;;;;;;;1.63;0.95;;;;;;;-145.06;0.00;60892.56;4834697;28;20034;-87
2022/02/13 01:06:43;;;;;;;1.02;0.82;;;;;;;-145.06;0.00;60892.56;4841617;28;20357;-87
2022/02/13 01:09:22;;;;;;;1.10;1.00;;;;;;;-145.06;0.00;60892.56;4837304;28;20033;-87
2022/02/13 01:12:01;;;;;;;1.58;1.10;;;;;;;-145.06;0.00;60892.56;4827777;28;20034;-87
2022/02/13 01:14:40;;;;;;;1.57;0.80;;;;;;;-145.06;0.00;60892.56;4847138;28;20042;-87
2022/02/13 01:17:19;;;;;;;1.30;1.20;;;;;;;-145.06;0.00;60892.56;4825133;28;20500;-87
2022/02/13 01:19:58;;;;;;;2.03;1.27;;;;;;;-145.06;0.00;60892.56;4835181;28;20042;-87
2022/02/13 01:22:37;;;;;;;0.90;0.80;;;;;;;-145.06;0.00;60892.56;4837846;28;20848;-88
2022/02/13 01:25:16;;;;;;;1.35;1.20;;;;;;;-145.06;0.00;60892.56;4849694;28;20158;-87
2022/02/13 01:27:55;;;;;;;1.63;1.10;;;;;;;-145.06;0.00;60892.56;4834368;28;20030;-87
2022/02/13 01:30:34;;;;;;;1.00;0.70;;;;;;;-145.06;0.00;60892.56;4830759;28;20030;-87
2022/02/13 01:33:13;;;;;;;1.23;1.00;;;;;;;-145.06;0.00;60892.56;4836610;28;20109;-88
2022/02/13 01:35:52;;;;;;;1.92;1.10;;;;;;;-145.06;0.00;60892.56;4832219;28;20368;-88
2022/02/13 01:38:33;;;;;;;1.52;0.90;;;;;;;-145.06;0.00;60892.56;4838036;28;20044;-88
2022/02/13 01:41:13;;;;;;;1.98;1.00;;;;;;;-145.06;0.00;60892.56;4844120;28;20491;-88
2022/02/13 01:43:55;;;;;;;1.75;0.85;;;;;;;21.08;0.00;60892.56;4830115;28;20477;-86
2022/02/13 01:46:37;;;;;;;1.10;0.93;;;;;;;-145.06;0.00;60892.56;4840662;28;20034;-88
2022/02/13 01:49:16;;;;;;;1.67;1.13;;;;;;;187.52;0.00;60892.56;4856615;28;20029;-87
2022/02/13 01:51:59;;;;;;;1.63;1.03;;;;;;;-145.06;0.00;60892.56;4858854;28;20033;-87
2022/02/13 01:54:38;;;;;;;1.80;1.25;;;;;;;10.68;0.00;60892.56;4854261;28;20272;-87
2022/02/13 01:57:17;;;;;;;1.92;1.30;;;;;;;-145.06;0.00;60892.56;4839053;28;20500;-88
2022/02/13 01:59:56;;;;;;;1.73;1.10;;;;;;;10.68;0.00;60892.56;4857252;28;20029;-88
2022/02/13 02:02:35;;;;;;;1.27;0.95;;;;;;;-145.06;0.00;60892.56;4848776;28;20489;-88
2022/02/13 02:05:14;;;;;;;1.17;1.00;;;;;;;-145.06;0.00;60892.56;4836488;28;20109;-87
2022/02/13 02:07:52;;;;;;;1.57;1.20;;;;;;;1.59;0.00;60892.56;4837691;28;20377;-87
2022/02/13 02:10:31;;;;;;;1.50;0.90;;;;;;;5.49;0.00;60892.56;4852850;28;20492;-87
2022/02/13 02:13:13;;;;;;;1.90;1.10;;;;;;;187.52;0.00;60892.56;4834061;28;20030;-87
2022/02/13 02:15:52;;;;;;;0.75;0.75;;;;;;;-145.06;0.00;60892.56;4853166;28;20021;-87
2022/02/13 02:18:31;;;;;;;1.42;1.05;;;;;;;-145.06;0.00;60892.56;4849284;28;20060;-87
2022/02/13 02:21:10;;;;;;;2.33;1.40;;;;;;;1.50;0.00;60892.56;4857841;28;20041;-88
2022/02/13 02:23:49;;;;;;;1.13;0.80;;;;;;;-145.06;0.00;60892.56;4843785;28;20041;-87
2022/02/13 02:26:28;;;;;;;1.17;0.97;;;;;;;-145.06;0.00;60892.56;4844264;28;20034;-87
2022/02/13 02:29:07;;;;;;;1.88;1.05;;;;;;;-145.06;0.00;60892.56;4842432;28;20025;-87
2022/02/13 02:31:47;;;;;;;2.60;1.20;;;;;;;1.44;0.00;60892.56;4858647;28;22050;-87
2022/02/13 02:34:26;;;;;;;1.10;0.93;;;;;;;1.37;0.00;60892.56;4842525;28;20030;-87
2022/02/13 02:37:06;;;;;;;1.63;1.05;;;;;;;1.33;0.00;60892.56;4833700;28;20360;-87
2022/02/13 02:39:45;;;;;;;;;;;;;;;1.30;0.00;60892.56;4838020;28;20041;-87
2022/02/13 02:42:24;;;;;;;1.98;1.20;;;;;;;-145.06;0.00;60892.56;4851569;28;19952;-87
2022/02/13 02:45:04;;;;;;;1.30;1.10;;;;;;;21.08;0.00;60892.56;4834106;28;20034;-87
2022/02/13 02:47:43;;;;;;;1.23;1.02;;;;;;;-145.06;0.00;60892.56;4831396;28;20034;-87
2022/02/13 02:50:22;;;;;;;1.50;1.10;;;;;;;-145.06;0.00;60892.56;4843624;28;20483;-87
2022/02/13 02:53:00;;;;;;;1.83;1.33;;;;;;;-145.06;0.00;60892.56;4838438;28;20284;-87
2022/02/13 02:55:40;;;;;;;2.20;1.00;;;;;;;-145.06;0.00;60892.56;4830727;28;20281;-87
2022/02/13 02:58:19;;;;;;;2.97;1.20;;;;;;;-145.06;0.00;60892.56;4841818;28;20034;-86
2022/02/13 03:00:58;;;;;;;1.40;1.20;;;;;;;-145.06;0.00;60892.56;4837777;28;20034;-87
2022/02/13 03:03:37;;;;;;;3.00;1.37;;;;;;;-145.06;0.00;60892.56;4831748;28;20488;-86
2022/02/13 03:06:15;;;;;;;2.70;1.20;;;;;;;-145.06;0.00;60892.56;4843264;28;20265;-88
2022/02/13 03:08:54;;;;;;;2.67;1.40;;;;;;;-145.06;0.00;60892.56;4837707;28;20045;-87
2022/02/13 03:11:33;;;;;;;2.55;1.42;;;;;;;-145.06;0.00;60892.56;4831877;28;20034;-87
2022/02/13 03:14:12;;;;;;;3.08;1.60;;;;;;;-145.06;0.00;60892.56;4834916;28;20037;-86
2022/02/13 03:16:52;;;;;;;1.30;1.20;;;;;;;-145.06;0.00;60892.56;4838301;28;20034;-88
2022/02/13 03:19:31;;;;;;;2.33;1.40;;;;;;;-145.06;0.00;60892.56;4826881;28;20269;-87
2022/02/13 03:22:10;;;;;;;1.50;1.30;;;;;;;-145.06;0.00;60892.56;4837424;28;20049;-87
2022/02/13 03:24:49;;;;;;;1.73;1.20;;;;;;;-145.06;0.00;60892.56;4835185;28;20041;-87
2022/02/13 03:27:28;;;;;;;1.30;1.00;;;;;;;-145.06;0.00;60892.56;4835447;28;20361;-87
2022/02/13 03:30:07;;;;;;;1.15;0.88;;;;;;;-145.06;0.00;60892.56;4831567;28;20034;-87
2022/02/13 03:32:46;;;;;;;1.48;1.20;;;;;;;-145.06;0.00;60892.56;4852348;28;20037;-87
2022/02/13 03:35:25;;;;;;;1.00;0.87;;;;;;;-145.06;0.00;60892.56;4835813;28;20046;-87
2022/02/13 03:38:05;;;;;;;1.33;1.07;;;;;;;-145.06;0.00;60892.56;4849989;28;20029;-87
2022/02/13 03:40:44;;;;;;;1.48;1.15;;;;;;;-145.06;0.00;60892.56;4846119;28;20033;-87
2022/02/13 03:43:23;;;;;;;1.35;1.10;;;;;;;-145.06;0.00;60892.56;4832067;28;20113;-86
2022/02/13 03:46:02;;;;;;;0.97;0.80;;;;;;;-145.06;0.00;60892.56;4837428;28;20084;-87
2022/02/13 03:48:41;;;;;;;1.10;1.00;;;;;;;-145.06;0.00;60892.56;4829704;28;20034;-86
2022/02/13 03:51:20;;;;;;;1.20;1.05;;;;;;;-145.06;0.00;60892.56;4839223;28;20042;-87
2022/02/13 03:53:59;;;;;;;1.50;1.20;;;;;;;-145.06;0.00;60892.56;4837711;28;20392;-87
2022/02/13 03:56:38;;;;;;;1.73;1.27;;;;;;;-145.06;0.00;60892.56;4854625;28;20042;-87
2022/02/13 03:59:17;;;;;;;1.33;1.00;;;;;;;-145.06;0.00;60892.56;4836030;28;20069;-87
2022/02/13 04:01:56;;;;;;;1.67;1.10;;;;;;;-145.06;0.00;60892.56;4835319;28;20033;-87
2022/02/13 04:04:35;;;;;;;5.43;1.70;;;;;;;-145.06;0.00;60892.56;4844090;28;20265;-87
2022/02/13 04:07:15;;;;;;;1.97;1.23;;;;;;;-145.06;0.00;60892.56;4830805;28;20053;-88
2022/02/13 04:09:55;;;;;;;1.33;1.17;;;;;;;-145.06;0.00;60892.56;4835659;28;20257;-87
2022/02/13 04:12:34;;;;;;;1.67;1.27;;;;;;;-145.06;0.00;60892.56;4836427;28;20026;-87
2022/02/13 04:15:14;;;;;;;1.30;1.10;;;;;;;-145.06;0.00;60892.56;4833518;28;20030;-88
2022/02/13 04:17:53;;;;;;;1.80;1.45;;;;;;;-145.06;0.00;60892.56;4835819;28;20377;-87
2022/02/13 04:20:32;;;;;;;2.88;1.27;;;;;;;-145.06;0.00;60892.56;4844689;28;20041;-87
2022/02/13 04:23:11;;;;;;;1.42;1.02;;;;;;;-145.06;0.00;60892.56;4847664;28;20033;-88
2022/02/13 04:25:50;;;;;;;1.67;1.17;;;;;;;-145.06;0.00;60892.56;4843728;28;20034;-87
2022/02/13 04:28:29;;;;;;;1.90;1.20;;;;;;;-145.06;0.00;60892.56;4839352;28;20065;-87
2022/02/13 04:31:08;;;;;;;1.45;1.10;;;;;;;-145.06;0.00;60892.56;4841356;28;20675;-87
2022/02/13 04:33:47;;;;;;;1.50;1.10;;;;;;;-145.06;0.00;60892.56;4825974;28;20045;-87
2022/02/13 04:36:26;;;;;;;1.80;1.30;;;;;;;-145.06;0.00;60892.56;4849247;28;20612;-87
2022/02/13 04:39:05;;;;;;;1.52;1.23;;;;;;;-145.06;0.00;60892.56;4841403;28;20276;-87
2022/02/13 04:41:44;;;;;;;1.10;1.00;;;;;;;-145.06;0.00;60892.56;4836642;28;20487;-88
2022/02/13 04:44:23;;;;;;;2.20;1.23;;;;;;;-145.06;0.00;60892.56;4826308;28;20061;-88
2022/02/13 04:47:02;;;;;;;1.30;1.05;;;;;;;-145.06;0.00;60892.56;4836182;28;20026;-88
2022/02/13 04:49:41;;;;;;;2.53;1.65;;;;;;;-145.06;0.00;60892.56;4839274;28;20025;-88
2022/02/13 04:52:20;;;;;;;3.10;1.33;;;;;;;-145.06;0.00;60892.56;4837113;28;20591;-88
2022/02/13 04:54:59;;;;;;;1.70;1.30;;;;;;;-145.06;0.00;60892.56;4841722;28;20030;-88
2022/02/13 04:57:39;;;;;;;1.40;1.10;;;;;;;-145.06;0.00;60892.56;4840263;28;20277;-88
2022/02/13 05:00:18;;;;;;;;;;;;;;;-145.06;0.00;60892.56;4837260;28;20037;-87
2022/02/13 05:02:57;;;;;;;1.40;1.10;;;;;;;-145.06;0.00;60892.56;4836447;28;19956;-87
2022/02/13 05:05:36;;;;;;;1.15;0.98;;;;;;;-145.06;0.00;60892.56;4833468;28;20361;-88
2022/02/13 05:08:15;;;;;;;1.40;0.90;;;;;;;-145.06;0.00;60892.56;4839410;28;20025;-87
2022/02/13 05:10:54;;;;;;;1.02;0.95;;;;;;;-145.06;0.00;60892.56;4833866;28;20034;-86
2022/02/13 05:13:33;;;;;;;2.65;1.42;;;;;;;-145.06;0.00;60892.56;4839330;28;20030;-87
2022/02/13 05:16:12;;;;;;;1.25;0.90;;;;;;;-145.06;0.00;60892.56;4839964;28;20030;-88
2022/02/13 05:18:51;;;;;;;1.85;1.17;;;;;;;-145.06;0.00;60892.56;4829993;28;20109;-87
2022/02/13 05:21:30;;;;;;;1.20;1.10;;;;;;;-145.06;0.00;60892.56;4840706;28;20041;-88
2022/02/13 05:24:09;;;;;;;1.35;1.10;;;;;;;-145.06;0.00;60892.56;4851960;28;20037;-87
2022/02/13 05:26:48;;;;;;;0.93;0.93;;;;;;;-145.06;0.00;60892.56;4844358;28;20061;-87
2022/02/13 05:29:27;;;;;;;2.10;1.13;;;;;;;-145.06;0.00;60892.56;4842303;28;20480;-87
2022/02/13 05:32:06;;;;;;;2.53;1.20;;;;;;;-145.06;0.00;60892.56;4839119;28;20033;-88
2022/02/13 05:34:45;;;;;;;1.60;1.10;;;;;;;-145.06;0.00;60892.56;4834297;28;20029;-87
2022/02/13 05:37:24;;;;;;;3.33;1.30;;;;;;;-145.06;0.00;60892.56;4847001;28;20034;-88
2022/02/13 05:40:04;;;;;;;2.03;1.30;;;;;;;0.29;0.00;60892.56;4851419;28;20029;-87
2022/02/13 05:42:43;;;;;;;1.27;1.00;;;;;;;-145.06;0.00;60892.56;4835810;28;20038;-88
2022/02/13 05:45:23;;;;;;;1.52;1.02;;;;;;;-145.06;0.00;60892.56;4843812;28;20034;-88
2022/02/13 05:48:02;;;;;;;1.88;1.00;;;;;;;-145.06;0.00;60892.56;4849525;28;20029;-88
2022/02/13 05:50:41;;;;;;;1.80;1.20;;;;;;;-145.06;0.00;60892.56;4848564;28;20029;-87
2022/02/13 05:53:20;;;;;;;1.73;1.17;;;;;;;-145.06;0.00;60892.56;4842190;28;20618;-88
2022/02/13 05:55:59;;;;;;;1.73;1.13;;;;;;;-145.06;0.00;60892.56;4838631;28;20072;-86
2022/02/13 05:58:40;;;;;;;1.80;1.10;;;;;;;-145.06;0.00;60892.56;4831358;28;20038;-87
2022/02/13 06:01:19;;;;;;;0.98;0.75;;;;;;;-145.06;0.00;60892.56;4832498;28;20042;-88
2022/02/13 06:03:58;;;;;;;1.30;1.20;;;;;;;-145.06;0.00;60892.56;4836506;28;20029;-88
2022/02/13 06:06:37;;;;;;;1.67;1.20;;;;;;;-145.06;0.00;60892.56;4838792;28;20498;-87
2022/02/13 06:09:17;;;;;;;1.10;0.80;;;;;;;-145.06;0.00;60892.56;4829102;28;20034;-90
2022/02/13 06:11:56;;;;;;;;;;;;;;;-145.06;0.00;60892.56;4846575;28;20034;-87
2022/02/13 06:14:35;;;;;;;1.58;1.27;;;;;;;-145.06;0.00;60892.56;4838062;28;19913;-88
2022/02/13 06:17:14;;;;;;;1.77;1.20;;;;;;;-145.06;0.00;60892.56;4838559;28;20041;-87
2022/02/13 06:19:53;;;;;;;1.63;1.20;;;;;;;-145.06;0.00;60892.56;4836618;28;20034;-88
2022/02/13 06:22:33;;;;;;;1.45;1.20;;;;;;;-145.06;0.00;60892.56;4831265;28;20113;-88
2022/02/13 06:25:12;;;;;;;1.48;1.20;;;;;;;-145.06;0.00;60892.56;4833213;28;20609;-88
2022/02/13 06:27:51;;;;;;;1.40;1.20;;;;;;;-145.06;0.00;60892.56;4825034;28;20065;-87
2022/02/13 06:30:30;;;;;;;1.52;1.23;;;;;;;21.08;0.00;60892.56;4833102;28;20030;-87
2022/02/13 06:33:09;;;;;;;1.65;1.10;;;;;;;-145.06;0.00;60892.56;4837257;28;20033;-88
2022/02/13 06:35:48;;;;;;;2.47;1.20;;;;;;;-145.06;0.00;60892.56;4833296;28;20037;-87
2022/02/13 06:38:27;;;;;;;3.17;1.42;;;;;;;-145.06;0.00;60892.56;4838218;28;20037;-88
2022/02/13 06:41:06;;;;;;;5.10;1.67;;;;;;;0.29;0.00;60892.56;4834352;28;20029;-88
2022/02/13 06:43:45;;;;;;;3.60;1.73;;;;;;;-145.06;0.00;60892.56;4832142;28;20062;-88
2022/02/13 06:46:24;;;;;;;4.07;2.22;;;;;;;-145.06;0.00;60892.56;4840278;28;20218;-87
2022/02/13 06:49:03;;;;;;;2.33;1.80;;;;;;;-145.06;0.00;60892.56;4838060;28;20038;-87
2022/02/13 06:51:42;;;;;;;3.30;1.73;;;;;;;-145.06;0.00;60892.56;4838878;28;20368;-88
2022/02/13 06:54:21;;;;;;;1.63;1.37;;;;;;;-145.06;0.00;60892.56;4839502;28;20045;-87
2022/02/13 06:57:00;;;;;;;3.47;1.77;;;;;;;-145.06;0.00;60892.56;4841247;28;20065;-88
2022/02/13 06:59:41;;;;;;;2.72;1.70;;;;;;;-145.06;0.00;60892.56;4836813;28;20033;-89
2022/02/13 07:02:20;;;;;;;2.63;1.50;;;;;;;-145.06;0.00;60892.56;4826944;28;20046;-89
2022/02/13 07:04:59;;;;;;;2.67;1.40;;;;;;;21.08;0.00;60892.56;4837175;28;20037;-89
2022/02/13 07:07:38;;;;;;;3.43;1.57;;;;;;;-145.06;0.00;60892.56;4832543;28;20109;-89
2022/02/13 07:10:17;;;;;;;2.22;1.20;;;;;;;-145.06;0.00;60892.56;4837550;28;20281;-88
2022/02/13 07:12:56;;;;;;;1.95;1.23;;;;;;;-145.06;0.00;60892.56;4834665;28;20030;-88
2022/02/13 07:15:37;;;;;;;3.63;1.75;;;;;;;-145.06;0.00;60892.56;4834805;28;20037;-89
2022/02/13 07:18:16;;;;;;;7.07;3.15;;;;;;;0.17;0.00;60892.56;4834674;28;20042;-89
2022/02/13 07:20:55;;;;;;;14.50;5.25;;;;;;;-145.06;0.00;60892.56;4833458;28;20077;-89
2022/02/13 07:23:34;;;;;;;16.47;5.17;;;;;;;-145.06;0.00;60892.56;4838032;28;20073;-88
2022/02/13 07:26:12;;;;;;;23.30;8.87;;;;;;;-145.06;0.00;60892.56;4856666;28;20285;-89
2022/02/13 07:29:01;;;;;;;20.48;8.43;;;;;;;-145.06;0.00;60892.56;4834848;28;20268;-87
2022/02/13 07:31:40;;;;;;;20.73;7.30;;;;;;;-145.06;0.00;60892.56;4836309;28;20037;-87
2022/02/13 07:34:19;;;;;;;22.75;8.85;;;;;;;-145.06;0.00;60892.56;4836140;28;20145;-88
2022/02/13 07:37:03;;;;;;;25.43;9.93;;;;;;;-145.06;0.00;60892.56;4832552;28;20532;-89
2022/02/13 07:39:42;;;;;;;22.70;9.48;;;;;;;-145.06;0.00;60892.56;4818362;28;20477;-88
2022/02/13 07:42:22;;;;;;;43.63;16.77;;;;;;;-145.06;0.00;60892.56;4825427;28;20050;-88
2022/02/13 07:45:01;;;;;;;38.40;15.27;;;;;;;-145.06;0.00;60892.56;4832325;28;20062;-87
2022/02/13 07:47:40;;;;;;;34.10;14.20;;;;;;;-145.06;0.00;60892.56;4831522;28;20377;-89
2022/02/13 07:50:19;;;;;;;30.35;13.40;;;;;;;-145.06;0.00;60892.56;4847339;28;20038;-88
2022/02/13 07:52:58;;;;;;;35.20;13.83;;;;;;;-145.06;0.00;60892.56;4836234;28;20041;-89
2022/02/13 07:55:36;;;;;;;27.60;11.10;;;;;;;-145.06;0.00;60892.56;4856179;28;20053;-89
2022/02/13 07:58:16;;;;;;;23.25;9.57;;;;;;;-145.06;0.00;60892.56;4836158;28;20034;-88
2022/02/13 08:00:55;;;;;;;20.15;8.52;;;;;;;-145.06;0.00;60892.56;4850159;28;20029;-89
2022/02/13 08:03:37;;;;;;;20.23;8.65;;;;;;;-145.06;0.00;60892.56;4842080;28;20042;-89
2022/02/13 08:06:18;;;;;;;18.90;8.80;;;;;;;-145.06;0.00;60892.56;4836909;28;20428;-89
2022/02/13 08:08:58;;;;;;;16.77;8.07;;;;;;;-145.06;0.00;60892.56;4836940;28;20029;-89
2022/02/13 08:11:37;;;;;;;14.82;7.03;;;;;;;-145.06;0.00;60892.56;4834917;28;20042;-89
2022/02/13 08:14:16;;;;;;;12.52;7.28;;;;;;;-145.06;0.00;60892.56;4826571;28;20038;-89
2022/02/13 08:16:55;;;;;;;12.00;6.13;;;;;;;-145.06;0.00;60892.56;4837364;28;20578;-90
2022/02/13 08:19:36;;;;;;;8.27;4.82;;;;;;;-145.06;0.00;60892.56;4837034;28;20046;-90
2022/02/13 08:22:15;;;;;;;7.43;4.45;;;;;;;-145.06;0.00;60892.56;4838363;28;20025;-88
2022/02/13 08:24:54;;;;;;;15.38;8.90;;;;;;;-145.06;0.00;60892.56;4846592;28;20487;-90
2022/02/13 08:27:33;;;;;;;13.10;8.23;;;;;;;-145.06;0.00;60892.56;4845694;28;20373;-90
2022/02/13 08:30:12;;;;;;;10.40;6.30;;;;;;;-145.06;0.00;60892.56;4834891;28;20025;-90
2022/02/13 08:32:51;;;;;;;9.73;5.60;;;;;;;-145.06;0.00;60892.56;4842786;28;20037;-89
2022/02/13 08:35:30;;;;;;;8.85;5.70;;;;;;;-145.06;0.00;60892.56;4840112;28;20615;-89
2022/02/13 08:38:10;;;;;;;8.13;4.83;;;;;;;-145.06;0.00;60892.56;4831175;28;20077;-88
2022/02/13 08:40:50;;;;;;;8.07;5.05;;;;;;;-145.06;0.00;60892.56;4830053;28;20810;-90
2022/02/13 08:43:29;;;;;;;;;;;;;;;-145.06;0.00;60892.56;4846282;28;20038;-90
2022/02/13 08:46:08;;;;;;;6.00;4.05;;;;;;;-145.06;0.00;60892.56;4841911;28;19913;-89
2022/02/13 08:48:47;;;;;;;6.68;4.18;;;;;;;21.08;0.00;60892.56;4836066;28;20030;-89
2022/02/13 08:51:27;;;;;;;7.03;4.00;;;;;;;4.19;0.00;60892.56;4835485;28;20034;-90
2022/02/13 08:54:06;;;;;;;6.63;4.00;;;;;;;-145.06;0.00;60892.56;4844979;28;20037;-89
2022/02/13 08:56:45;;;;;;;6.00;3.57;;;;;;;4.19;0.00;60892.56;4837006;28;20432;-89
2022/02/13 08:59:23;;;;;;;3.73;2.77;;;;;;;-145.06;0.00;60892.56;4829892;28;20037;-90
2022/02/13 09:02:03;;;;;;;3.72;2.33;;;;;;;-145.06;0.00;60892.56;4852753;28;20288;-90
2022/02/13 09:04:42;;;;;;;3.25;2.25;;;;;;;-145.06;0.00;60892.56;4849936;28;20038;-88
2022/02/13 09:07:21;;;;;;;3.88;2.20;;;;;;;-145.06;0.00;60892.56;4855778;28;20030;-88
2022/02/13 09:10:00;;;;;;;3.57;2.30;;;;;;;-145.06;0.00;60892.56;4835548;28;20484;-89
2022/02/13 09:12:40;;;;;;;3.17;2.03;;;;;;;-145.06;0.00;60892.56;4835296;28;20352;-89
2022/02/13 09:15:20;;;;;;;3.22;2.08;;;;;;;-145.06;0.00;60892.56;4820610;28;20113;-89
2022/02/13 09:17:59;;;;;;;;;;;;;;;-145.06;0.00;60892.56;4832254;28;20030;-89
2022/02/13 09:20:44;;;;;;;2.72;1.70;;;;;;;4.19;0.00;60892.56;4840296;28;19913;-89
2022/02/13 09:23:23;;;;;;;4.05;2.22;;;;;;;-145.06;0.00;60892.56;4828947;28;20503;-89
2022/02/13 09:26:02;;;;;;;3.77;2.60;;;;;;;4.07;0.00;60892.56;4833316;28;20025;-89
2022/02/13 09:28:41;;;;;;;3.25;2.15;;;;;;;-145.06;0.00;60892.56;4830538;28;20034;-90
2022/02/13 09:31:20;;;;;;;3.17;2.03;;;;;;;-145.06;0.00;60892.56;4835449;28;20038;-89
2022/02/13 09:33:59;;;;;;;2.65;1.55;;;;;;;-145.06;0.00;60892.56;4833615;28;20057;-90
2022/02/13 09:36:40;;;;;;;2.00;1.57;;;;;;;-145.06;0.00;60892.56;4835878;28;20026;-89
2022/02/13 09:39:19;;;;;;;2.50;1.52;;;;;;;-145.06;0.00;60892.56;4839038;28;20034;-88
2022/02/13 09:41:58;;;;;;;1.75;1.33;;;;;;;-145.06;0.00;60892.56;4857146;28;20025;-89
2022/02/13 09:44:37;;;;;;;1.63;1.25;;;;;;;-145.06;0.00;60892.56;4829953;28;20050;-90
2022/02/13 09:47:18;;;;;;;1.55;1.13;;;;;;;-145.06;0.00;60892.56;4831465;28;20029;-89
2022/02/13 09:49:58;;;;;;;1.58;1.10;;;;;;;5.08;0.00;60892.56;4850893;28;20524;-88
2022/02/13 09:52:37;;;;;;;1.90;1.20;;;;;;;-145.06;0.00;60892.56;4835301;28;20072;-88
2022/02/13 09:55:15;;;;;;;1.63;1.23;;;;;;;5.25;0.00;60892.56;4834268;28;20380;-88
2022/02/13 09:58:01;;;;;;;2.30;1.13;;;;;;;-145.06;0.00;60892.56;4837963;28;20489;-89
2022/02/13 10:01:10;;;;;;;1.52;1.05;;;;;;;-145.06;0.00;60892.56;4838496;28;20029;-89
2022/02/13 10:03:51;;;;;;;1.33;0.85;;;;;;;-145.06;0.00;60892.56;4833423;28;20033;-89
2022/02/13 10:06:31;;;;;;;1.20;1.08;;;;;;;-145.06;0.00;60892.56;4824893;28;20030;-92
2022/02/13 10:09:10;;;;;;;1.77;1.00;;;;;;;-145.06;0.00;60892.56;4840326;28;20041;-89
2022/02/13 10:12:00;;;;;;;2.13;1.10;;;;;;;-145.06;0.00;60892.56;4831461;28;20117;-89
2022/02/13 10:14:39;;;;;;;1.30;0.90;;;;;;;-145.06;0.00;60892.56;4838608;28;20113;-89
2022/02/13 10:17:18;;;;;;;1.05;0.65;;;;;;;-145.06;0.00;60892.56;4836051;28;20038;-89
2022/02/13 10:19:58;;;;;;;1.40;0.70;;;;;;;-145.06;0.00;60892.56;4838429;28;20033;-89
2022/02/13 10:22:38;;;;;;;0.63;0.50;;;;;;;-145.06;0.00;60892.56;4827235;28;20120;-89
2022/02/13 10:25:17;;;;;;;0.82;0.60;;;;;;;-145.06;0.00;60892.56;4835974;28;20038;-89
2022/02/13 10:27:56;;;;;;;0.77;0.60;;;;;;;7.92;0.00;60892.56;4848112;28;20125;-90
2022/02/13 10:30:38;;;;;;;0.63;0.52;;;;;;;10.68;0.00;60892.56;4834710;28;20030;-89
2022/02/13 10:33:26;;;;;;;0.98;0.70;;;;;;;-145.06;0.00;60892.56;4829309;28;20030;-89
2022/02/13 10:36:08;;;;;;;1.10;0.70;;;;;;;-145.06;0.00;60892.56;4834281;28;20488;-89
2022/02/13 10:38:47;;;;;;;1.30;0.88;;;;;;;-145.06;0.00;60892.56;4837445;28;20030;-89
2022/02/13 10:41:28;;;;;;;2.13;1.00;;;;;;;9.06;0.00;60892.56;4831644;28;20544;-89
2022/02/13 10:44:08;;;;;;;0.80;0.70;;;;;;;-145.06;0.00;60892.56;4843234;28;20269;-89
2022/02/13 10:46:47;;;;;;;0.70;0.70;;;;;;;-145.06;0.00;60892.56;4834360;28;20023;-89
2022/02/13 10:49:26;;;;;;;1.10;0.68;;;;;;;-145.06;0.00;60892.56;4839249;28;20021;-90
2022/02/13 10:52:06;;;;;;;0.90;0.70;;;;;;;-145.06;0.00;60892.56;4852982;28;20033;-90
2022/02/13 10:54:47;;;;;;;0.98;0.65;;;;;;;-145.06;0.00;60892.56;4841625;28;20037;-89
2022/02/13 10:57:26;;;;;;;0.77;0.57;;;;;;;-145.06;0.00;60892.56;4846784;28;20026;-90
2022/02/13 11:00:07;;;;;;;1.30;0.80;;;;;;;-145.06;0.00;60892.56;4837404;28;20037;-88
2022/02/13 11:02:48;;;;;;;2.50;0.80;;;;;;;-145.06;0.00;60892.56;4839537;28;20030;-90
2022/02/13 11:05:29;;;;;;;1.38;0.85;;;;;;;-145.06;0.00;60892.56;4831631;28;20476;-91
2022/02/13 11:08:15;;;;;;;1.20;0.98;;;;;;;10.41;0.00;60892.56;4852283;28;20432;-90
2022/02/13 11:10:56;;;;;;;1.42;0.90;;;;;;;10.52;0.00;60892.56;4846269;28;20525;-89
2022/02/13 11:13:36;;;;;;;0.93;0.82;;;;;;;-145.06;0.00;60892.56;4830645;28;20034;-89
2022/02/13 11:16:31;;;;;;;2.27;0.90;;;;;;;-145.06;0.00;60892.56;4829381;28;20485;-89
2022/02/13 11:19:13;;;;;;;1.30;0.90;;;;;;;-145.06;0.00;60892.56;4834719;28;20281;-89
2022/02/13 11:21:52;;;;;;;1.65;1.17;;;;;;;-145.06;0.00;60892.56;4828213;28;20117;-89
2022/02/13 11:24:36;;;;;;;1.88;1.33;;;;;;;-145.06;0.00;60892.56;4821946;28;20109;-90
2022/02/13 11:27:17;;;;;;;1.52;1.20;;;;;;;-145.06;0.00;60892.56;4835799;28;20389;-89
2022/02/13 11:30:01;;;;;;;2.70;1.38;;;;;;;-145.06;0.00;60892.56;4829146;28;20027;-89
2022/02/13 11:32:45;;;;;;;4.00;1.65;;;;;;;-145.06;0.00;60892.56;4834515;28;20531;-89
2022/02/13 11:35:57;;;;;;;2.17;1.27;;;;;;;-145.06;0.00;60892.56;4838604;28;20033;-89
2022/02/13 11:38:52;;;;;;;3.45;1.17;;;;;;;-145.06;0.00;60892.56;4833162;28;20038;-90
2022/02/13 11:41:52;;;;;;;1.10;0.95;;;;;;;-145.06;0.00;60892.56;4827246;28;20053;-88
2022/02/13 11:44:41;;;;;;;1.77;0.80;;;;;;;-145.06;0.00;60892.56;4825520;28;20054;-90
2022/02/13 11:47:35;;;;;;;1.38;0.80;;;;;;;-145.06;0.00;60892.56;4833802;28;20572;-89
2022/02/13 11:50:19;;;;;;;1.10;0.88;;;;;;;187.52;0.00;60892.56;4829770;28;20029;-89
2022/02/13 11:53:04;;;;;;;1.23;0.70;;;;;;;11.73;0.00;60892.56;4851652;28;20030;-89
2022/02/13 11:55:42;;;;;;;0.90;0.60;;;;;;;11.82;0.00;60892.56;4840646;28;20030;-88
2022/02/13 11:58:40;;;;;;;0.82;0.68;;;;;;;11.92;0.00;60892.56;4830270;28;20069;-89
2022/02/13 12:01:35;;;;;;;1.58;0.75;;;;;;;-145.06;0.00;60892.56;4834443;28;20045;-90
2022/02/13 12:04:16;;;;;;;1.05;0.73;;;;;;;-145.06;0.00;60892.56;4838920;28;20033;-90
2022/02/13 12:06:55;;;;;;;1.13;0.77;;;;;;;187.52;0.00;60892.56;4842894;28;20017;-89
2022/02/13 12:09:36;;;;;;;1.23;0.73;;;;;;;-145.06;0.00;60892.56;4836961;28;20491;-89
2022/02/13 12:12:21;;;;;;;0.88;0.80;;;;;;;-145.06;0.00;60892.56;4832577;28;20027;-89
2022/02/13 12:15:00;;;;;;;1.63;0.80;;;;;;;-145.06;0.00;60892.56;4835158;28;20034;-88
2022/02/13 12:17:40;;;;;;;2.08;1.08;;;;;;;-145.06;0.00;60892.56;4839163;28;20033;-88
2022/02/13 12:20:19;;;;;;;1.20;0.82;;;;;;;-145.06;0.00;60892.56;4835486;28;20511;-89
2022/02/13 12:23:21;;;;;;;1.77;0.70;;;;;;;-145.06;0.00;60892.56;4834289;28;20026;-88
2022/02/13 12:26:00;;;;;;;1.35;0.80;;;;;;;-145.06;0.00;60892.56;4822944;28;20050;-89
2022/02/13 12:28:39;;;;;;;2.38;1.05;;;;;;;13.28;0.00;60892.56;4848064;28;20034;-88